createdAt,value
2019-04-07T00:02:04.814Z,64.50
2019-04-07T00:04:33.827Z,67.97
2019-04-07T00:07:03.559Z,67.27
2019-04-07T00:09:33.138Z,71.13
2019-04-07T00:12:02.172Z,69.33
2019-04-07T00:14:31.757Z,79.90
2019-04-07T00:17:00.805Z,80.70
2019-04-07T00:19:29.828Z,68.60
2019-04-07T00:21:59.331Z,75.23
2019-04-07T00:24:28.389Z,76.53
2019-04-07T00:26:57.842Z,69.47
2019-04-07T00:29:26.882Z,69.43
2019-04-07T00:31:56.136Z,84.33
2019-04-07T00:34:25.194Z,67.10
2019-04-07T00:36:54.210Z,76.07
2019-04-07T00:39:23.305Z,68.80
2019-04-07T00:41:52.202Z,69.40
2019-04-07T00:44:21.265Z,75.77
2019-04-07T00:46:50.960Z,68.50
2019-04-07T00:49:20.593Z,68.83
2019-04-07T00:51:51.370Z,68.60
2019-04-07T00:54:20.457Z,71.63
2019-04-07T00:56:50.153Z,70.33
2019-04-07T00:59:19.693Z,71.90
2019-04-07T01:01:48.781Z,69.93
2019-04-07T01:04:17.664Z,74.27
2019-04-07T01:06:47.208Z,73.60
2019-04-07T01:09:16.561Z,60.77
2019-04-07T01:11:46.228Z,68.97
2019-04-07T01:14:16.026Z,62.27
2019-04-07T01:16:45.621Z,66.50
2019-04-07T01:19:14.822Z,64.80
2019-04-07T01:21:43.874Z,62.93
2019-04-07T01:24:13.265Z,65.33
2019-04-07T01:26:42.312Z,61.30
2019-04-07T01:29:11.282Z,61.73
2019-04-07T01:31:40.455Z,64.40
2019-04-07T01:34:09.581Z,62.87
2019-04-07T01:36:39.120Z,64.17
2019-04-07T01:39:10.501Z,64.17
2019-04-07T01:41:54.838Z,61.60
2019-04-07T01:44:47.235Z,60.50
2019-04-07T01:47:21.586Z,60.23
2019-04-07T01:50:10.029Z,62.43
2019-04-07T01:52:53.619Z,63.03
2019-04-07T01:56:00.288Z,63.87
2019-04-07T01:58:41.607Z,64.00
2019-04-07T02:01:29.761Z,65.00
2019-04-07T02:04:35.999Z,69.10
2019-04-07T02:07:29.464Z,73.10
2019-04-07T02:10:16.317Z,70.40
2019-04-07T02:13:04.421Z,68.13
2019-04-07T02:15:46.208Z,71.50
2019-04-07T02:18:34.273Z,75.20
2019-04-07T02:21:09.686Z,74.93
2019-04-07T02:23:57.509Z,79.07
2019-04-07T02:26:52.281Z,76.87
2019-04-07T02:29:39.967Z,75.83
2019-04-07T02:32:27.906Z,80.23
2019-04-07T02:35:12.293Z,75.67
2019-04-07T02:38:00.864Z,75.30
2019-04-07T02:41:08.828Z,75.00
2019-04-07T02:44:02.657Z,77.43
2019-04-07T02:46:49.506Z,72.87
2019-04-07T02:49:41.272Z,83.17
2019-04-07T02:52:30.333Z,83.27
2019-04-07T02:55:35.485Z,78.10
2019-04-07T02:58:11.765Z,77.53
2019-04-07T03:00:55.507Z,72.60
2019-04-07T03:03:34.280Z,79.33
2019-04-07T03:06:43.987Z,70.90
2019-04-07T03:09:15.263Z,77.60
2019-04-07T03:11:54.694Z,78.50
2019-04-07T03:14:29.106Z,89.30
2019-04-07T03:17:06.687Z,87.87
2019-04-07T03:19:49.930Z,93.43
2019-04-07T03:22:36.884Z,84.93
2019-04-07T03:25:34.334Z,88.50
2019-04-07T03:28:21.460Z,84.40
2019-04-07T03:31:07.051Z,84.20
2019-04-07T03:33:49.727Z,86.13
2019-04-07T03:36:28.955Z,81.97
2019-04-07T03:39:01.978Z,88.90
2019-04-07T03:41:49.201Z,91.07
2019-04-07T03:44:43.454Z,87.23
2019-04-07T03:47:23.410Z,91.80
2019-04-07T03:50:16.501Z,86.80
2019-04-07T03:53:08.700Z,85.40
2019-04-07T03:55:51.264Z,84.93
2019-04-07T03:58:38.343Z,83.23
2019-04-07T04:01:28.467Z,85.57
2019-04-07T04:04:29.913Z,83.87
2019-04-07T04:07:29.951Z,83.90
2019-04-07T04:10:11.211Z,99.43
2019-04-07T04:13:07.044Z,98.10
2019-04-07T04:15:41.551Z,98.00
2019-04-07T04:18:11.934Z,89.63
2019-04-07T04:20:41.293Z,89.70
2019-04-07T04:23:11.248Z,85.30
2019-04-07T04:25:41.057Z,83.10
2019-04-07T04:28:10.145Z,82.00
2019-04-07T04:30:39.740Z,88.80
2019-04-07T04:33:09.036Z,90.00
2019-04-07T04:35:38.848Z,84.17
2019-04-07T04:38:08.231Z,85.00
2019-04-07T04:40:37.523Z,83.93
2019-04-07T04:43:06.592Z,87.17
2019-04-07T04:45:36.326Z,89.50
2019-04-07T04:48:06.570Z,90.60
2019-04-07T04:50:36.241Z,92.33
2019-04-07T04:53:06.112Z,88.57
2019-04-07T04:55:35.380Z,95.43
2019-04-07T04:58:05.310Z,84.63
2019-04-07T05:00:34.477Z,91.13
2019-04-07T05:03:04.571Z,95.10
2019-04-07T05:05:34.476Z,88.17
2019-04-07T05:08:05.390Z,97.40
2019-04-07T05:10:34.917Z,88.57
2019-04-07T05:13:04.527Z,80.10
2019-04-07T05:15:34.206Z,79.40
2019-04-07T05:18:04.215Z,77.30
2019-04-07T05:20:33.361Z,81.63
2019-04-07T05:23:02.638Z,79.37
2019-04-07T05:25:32.713Z,79.13
2019-04-07T05:28:01.834Z,77.27
2019-04-07T05:30:31.325Z,73.57
2019-04-07T05:33:00.967Z,72.80
2019-04-07T05:35:30.601Z,76.70
2019-04-07T05:38:04.020Z,70.17
2019-04-07T05:40:31.086Z,73.07
2019-04-07T05:43:00.760Z,68.00
2019-04-07T05:45:30.438Z,66.63
2019-04-07T05:48:00.093Z,68.83
2019-04-07T05:50:29.666Z,66.67
2019-04-07T05:52:59.269Z,66.53
2019-04-07T05:55:28.288Z,63.23
2019-04-07T05:57:57.557Z,67.70
2019-04-07T06:00:26.753Z,67.80
2019-04-07T06:02:56.043Z,68.47
2019-04-07T06:05:25.481Z,63.53
2019-04-07T06:07:54.467Z,61.97
2019-04-07T06:10:27.614Z,61.03
2019-04-07T06:12:55.314Z,63.70
2019-04-07T06:15:24.719Z,64.67
2019-04-07T06:17:58.762Z,62.67
2019-04-07T06:20:24.785Z,62.80
2019-04-07T06:22:54.637Z,63.93
2019-04-07T06:25:23.794Z,63.97
2019-04-07T06:27:53.240Z,63.07
2019-04-07T06:30:23.310Z,63.33
2019-04-07T06:32:52.803Z,63.67
2019-04-07T06:35:22.508Z,64.57
2019-04-07T06:37:52.025Z,63.27
2019-04-07T06:40:22.202Z,60.37
2019-04-07T06:42:51.546Z,60.63
2019-04-07T06:45:24.500Z,64.93
2019-04-07T06:47:56.319Z,61.27
2019-04-07T06:50:49.306Z,63.67
2019-04-07T06:53:19.683Z,61.67
2019-04-07T06:56:11.463Z,61.83
2019-04-07T06:59:11.930Z,61.10
2019-04-07T07:01:59.390Z,60.93
2019-04-07T07:04:50.684Z,60.90
2019-04-07T07:07:36.410Z,63.10
2019-04-07T07:10:25.929Z,62.10
2019-04-07T07:12:59.623Z,61.70
2019-04-07T07:15:43.854Z,64.30
2019-04-07T07:18:19.967Z,61.47
2019-04-07T07:21:07.236Z,62.90
2019-04-07T07:23:38.712Z,60.47
2019-04-07T07:26:08.177Z,63.77
2019-04-07T07:28:38.027Z,63.67
2019-04-07T07:31:07.818Z,66.93
2019-04-07T07:33:40.405Z,66.20
2019-04-07T07:36:07.948Z,66.57
2019-04-07T07:38:36.998Z,68.33
2019-04-07T07:41:06.367Z,64.90
2019-04-07T07:43:35.820Z,67.30
2019-04-07T07:46:05.590Z,65.83
2019-04-07T07:48:35.620Z,63.50
2019-04-07T07:51:07.152Z,64.43
2019-04-07T07:53:36.130Z,65.03
2019-04-07T07:56:08.348Z,66.57
2019-04-07T07:58:35.929Z,66.37
2019-04-07T08:01:05.451Z,62.10
2019-04-07T08:03:35.115Z,63.57
2019-04-07T08:06:07.392Z,65.03
2019-04-07T08:08:35.278Z,65.73
2019-04-07T08:11:04.600Z,65.37
2019-04-07T08:13:41.225Z,64.17
2019-04-07T08:16:05.080Z,65.43
2019-04-07T08:18:37.170Z,64.83
2019-04-07T08:21:05.547Z,66.40
2019-04-07T08:23:35.178Z,65.50
2019-04-07T08:26:04.966Z,64.10
2019-04-07T08:28:35.863Z,65.90
2019-04-07T08:31:05.540Z,67.67
2019-04-07T08:33:35.522Z,63.60
2019-04-07T08:36:09.663Z,63.60
2019-04-07T08:38:35.420Z,62.67
2019-04-07T08:41:08.167Z,60.23
2019-04-07T08:43:35.224Z,64.40
2019-04-07T08:46:05.081Z,62.20
2019-04-07T08:48:35.147Z,66.57
2019-04-07T08:51:04.729Z,62.43
2019-04-07T08:53:34.204Z,63.13
2019-04-07T08:56:06.372Z,59.63
2019-04-07T08:58:38.478Z,62.00
2019-04-07T09:01:06.411Z,62.63
2019-04-07T09:03:35.870Z,62.70
2019-04-07T09:06:04.927Z,61.27
2019-04-07T09:08:36.120Z,65.20
2019-04-07T09:11:11.209Z,61.10
2019-04-07T09:13:42.040Z,62.13
2019-04-07T09:16:24.658Z,62.13
2019-04-07T09:19:12.385Z,63.37
2019-04-07T09:21:50.470Z,62.23
2019-04-07T09:24:37.041Z,61.30
2019-04-07T09:27:25.778Z,63.23
2019-04-07T09:30:23.566Z,66.67
2019-04-07T09:33:07.107Z,61.70
2019-04-07T09:35:58.951Z,62.90
2019-04-07T09:38:30.352Z,65.50
2019-04-07T09:41:27.475Z,60.57
2019-04-07T09:44:20.858Z,62.00
2019-04-07T09:47:00.987Z,64.67
2019-04-07T09:49:48.169Z,61.30
2019-04-07T09:52:37.668Z,62.23
2019-04-07T09:55:27.902Z,62.53
2019-04-07T09:58:11.981Z,61.83
2019-04-07T10:01:09.495Z,64.30
2019-04-07T10:03:57.597Z,61.17
2019-04-07T10:06:49.532Z,62.13
2019-04-07T10:09:28.969Z,60.00
2019-04-07T10:12:28.234Z,61.27
2019-04-07T10:15:06.685Z,61.50
2019-04-07T10:18:02.062Z,61.83
2019-04-07T10:21:03.179Z,63.13
2019-04-07T10:23:50.881Z,62.60
2019-04-07T10:26:28.458Z,62.80
2019-04-07T10:29:06.981Z,61.43
2019-04-07T10:32:04.706Z,60.03
2019-04-07T10:34:50.975Z,62.03
2019-04-07T10:37:45.503Z,63.77
2019-04-07T10:40:35.738Z,59.57
2019-04-07T10:43:24.013Z,62.03
2019-04-07T10:46:12.450Z,60.70
2019-04-07T10:48:55.963Z,58.47
2019-04-07T10:51:34.384Z,62.40
2019-04-07T10:54:26.715Z,61.77
2019-04-07T10:57:13.801Z,56.47
2019-04-07T10:59:49.220Z,60.07
2019-04-07T11:02:46.726Z,57.80
2019-04-07T11:05:44.785Z,53.73
2019-04-07T11:08:21.317Z,53.23
2019-04-07T11:11:12.200Z,51.97
2019-04-07T11:14:13.423Z,51.53
2019-04-07T11:17:10.280Z,54.47
2019-04-07T11:19:57.549Z,47.73
2019-04-07T11:22:44.430Z,55.80
2019-04-07T11:25:27.362Z,48.43
2019-04-07T11:28:15.470Z,48.50
2019-04-07T11:30:52.108Z,48.13
2019-04-07T11:33:29.642Z,52.20
2019-04-07T11:36:09.436Z,51.13
2019-04-07T11:38:48.395Z,47.73
2019-04-07T11:41:34.685Z,51.07
2019-04-07T11:44:12.929Z,53.37
2019-04-07T11:47:07.216Z,53.40
2019-04-07T11:49:55.111Z,54.40
2019-04-07T11:52:42.072Z,52.73
2019-04-07T11:55:19.264Z,51.30
2019-04-07T11:58:14.375Z,53.90
2019-04-07T12:01:03.522Z,60.63
2019-04-07T12:03:53.801Z,52.07
2019-04-07T12:06:31.661Z,55.40
2019-04-07T12:09:25.885Z,55.90
2019-04-07T12:12:11.551Z,55.10
2019-04-07T12:14:56.637Z,52.90
2019-04-07T12:17:51.291Z,53.77
2019-04-07T12:20:51.890Z,52.77
2019-04-07T12:23:30.653Z,52.40
2019-04-07T12:26:11.414Z,52.23
2019-04-07T12:29:09.105Z,54.30
2019-04-07T12:32:00.727Z,55.30
2019-04-07T12:34:49.818Z,52.33
2019-04-07T12:37:35.038Z,50.13
2019-04-07T12:40:22.877Z,51.63
2019-04-07T12:43:03.506Z,51.67
2019-04-07T12:45:58.094Z,52.10
2019-04-07T12:48:33.021Z,50.67
2019-04-07T12:51:33.927Z,50.80
2019-04-07T12:54:23.317Z,50.57
2019-04-07T12:57:07.431Z,51.60
2019-04-07T12:59:55.138Z,50.43
2019-04-07T13:02:47.503Z,49.57
2019-04-07T13:05:35.954Z,50.77
2019-04-07T13:08:33.758Z,49.10
2019-04-07T13:11:26.552Z,48.63
2019-04-07T13:14:06.181Z,49.10
2019-04-07T13:16:56.454Z,49.10
2019-04-07T13:19:35.297Z,45.80
2019-04-07T13:22:23.535Z,47.00
2019-04-07T13:25:31.163Z,50.17
2019-04-07T13:28:17.315Z,48.90
2019-04-07T13:31:10.160Z,48.57
2019-04-07T13:33:50.142Z,48.33
2019-04-07T13:36:36.266Z,46.57
2019-04-07T13:39:39.243Z,47.70
2019-04-07T13:42:15.277Z,50.73
2019-04-07T13:45:09.545Z,49.97
2019-04-07T13:47:44.758Z,49.43
2019-04-07T13:50:34.477Z,47.97
2019-04-07T13:53:17.486Z,46.70
2019-04-07T13:56:00.710Z,47.30
2019-04-07T13:58:49.298Z,44.37
2019-04-07T14:01:40.759Z,42.57
2019-04-07T14:04:31.664Z,39.87
2019-04-07T14:07:07.871Z,37.63
2019-04-07T14:09:45.228Z,36.70
2019-04-07T14:12:49.031Z,35.00
2019-04-07T14:15:36.014Z,36.60
2019-04-07T14:18:15.489Z,39.50
2019-04-07T14:21:02.972Z,46.17
2019-04-07T14:23:58.174Z,40.23
2019-04-07T14:26:43.784Z,40.43
2019-04-07T14:29:31.622Z,38.13
2019-04-07T14:32:09.926Z,39.20
2019-04-07T14:35:04.269Z,35.20
2019-04-07T14:38:00.302Z,36.53
2019-04-07T14:40:51.233Z,39.00
2019-04-07T14:43:27.065Z,36.27
2019-04-07T14:46:01.630Z,36.43
2019-04-07T14:48:50.258Z,37.50
2019-04-07T14:51:42.664Z,37.53
2019-04-07T14:54:29.847Z,37.27
2019-04-07T14:57:17.486Z,36.90
2019-04-07T14:59:54.538Z,37.10
2019-04-07T15:02:24.746Z,35.23
2019-04-07T15:05:00.967Z,35.07
2019-04-07T15:07:48.389Z,35.43
2019-04-07T15:10:24.470Z,36.73
2019-04-07T15:12:56.857Z,34.87
2019-04-07T15:15:26.803Z,35.90
2019-04-07T15:17:55.967Z,35.83
2019-04-07T15:20:25.820Z,36.00
2019-04-07T15:22:58.398Z,34.07
2019-04-07T15:25:27.597Z,37.10
2019-04-07T15:27:58.880Z,34.67
2019-04-07T15:30:27.521Z,36.60
2019-04-07T15:32:58.585Z,33.53
2019-04-07T15:35:27.682Z,37.37
2019-04-07T15:37:57.081Z,38.10
2019-04-07T15:40:26.179Z,36.93
2019-04-07T15:42:55.681Z,39.67
2019-04-07T15:45:24.895Z,37.13
2019-04-07T15:47:54.213Z,37.60
2019-04-07T15:50:23.241Z,36.30
2019-04-07T15:52:52.311Z,36.93
2019-04-07T15:55:21.773Z,36.10
2019-04-07T15:57:54.283Z,36.50
2019-04-07T16:00:22.194Z,37.13
2019-04-07T16:02:52.705Z,36.00
2019-04-07T16:05:22.674Z,36.30
2019-04-07T16:07:54.306Z,33.83
2019-04-07T16:10:23.932Z,32.63
2019-04-07T16:12:56.722Z,32.30
2019-04-07T16:15:25.062Z,34.90
2019-04-07T16:17:54.367Z,31.37
2019-04-07T16:20:26.296Z,35.60
2019-04-07T16:22:54.288Z,31.57
2019-04-07T16:25:27.556Z,31.27
2019-04-07T16:27:54.564Z,29.23
2019-04-07T16:30:24.737Z,31.20
2019-04-07T16:32:54.736Z,29.50
2019-04-07T16:35:24.571Z,32.03
2019-04-07T16:37:54.249Z,29.13
2019-04-07T16:40:23.863Z,30.90
2019-04-07T16:43:04.615Z,32.03
2019-04-07T16:45:23.676Z,33.57
2019-04-07T16:47:53.089Z,32.77
2019-04-07T16:50:22.923Z,31.73
2019-04-07T16:52:51.982Z,31.87
2019-04-07T16:55:41.597Z,32.97
2019-04-07T16:58:11.701Z,31.87
2019-04-07T17:00:41.777Z,32.70
2019-04-07T17:03:11.302Z,32.30
2019-04-07T17:05:40.788Z,34.43
2019-04-07T17:08:10.037Z,35.87
2019-04-07T17:10:39.236Z,35.17
2019-04-07T17:13:17.101Z,33.77
2019-04-07T17:15:40.949Z,37.43
2019-04-07T17:18:36.794Z,37.17
2019-04-07T17:21:12.585Z,36.97
2019-04-07T17:23:41.054Z,34.87
2019-04-07T17:26:10.215Z,33.83
2019-04-07T17:28:42.080Z,35.33
2019-04-07T17:31:11.638Z,37.80
2019-04-07T17:33:41.503Z,36.47
2019-04-07T17:36:15.880Z,40.47
2019-04-07T17:38:46.665Z,43.93
2019-04-07T17:41:18.241Z,38.27
2019-04-07T17:44:02.478Z,39.63
2019-04-07T17:46:42.661Z,42.37
2019-04-07T17:49:36.433Z,44.93
2019-04-07T17:52:26.076Z,42.40
2019-04-07T17:55:12.707Z,40.70
2019-04-07T17:57:49.544Z,43.20
2019-04-07T18:00:47.529Z,42.03
2019-04-07T18:03:29.154Z,39.47
2019-04-07T18:06:21.638Z,38.53
2019-04-07T18:09:27.866Z,38.47
2019-04-07T18:12:25.905Z,39.17
2019-04-07T18:15:11.667Z,41.47
2019-04-07T18:17:56.189Z,40.53
2019-04-07T18:20:57.123Z,38.70
2019-04-07T18:23:38.470Z,39.10
2019-04-07T18:26:18.676Z,39.73
2019-04-07T18:28:59.725Z,42.20
2019-04-07T18:31:46.538Z,44.17
2019-04-07T18:34:41.754Z,44.00
2019-04-07T18:37:26.080Z,42.80
2019-04-07T18:40:14.481Z,43.30
2019-04-07T18:43:13.910Z,43.27
2019-04-07T18:46:06.145Z,46.47
2019-04-07T18:49:01.183Z,47.87
2019-04-07T18:51:59.554Z,50.37
2019-04-07T18:54:54.274Z,48.33
2019-04-07T18:57:42.631Z,48.43
2019-04-07T19:00:21.466Z,46.80
2019-04-07T19:03:22.667Z,48.97
2019-04-07T19:06:10.546Z,44.77
2019-04-07T19:08:54.401Z,53.70
2019-04-07T19:11:26.536Z,52.20
2019-04-07T19:14:31.683Z,54.87
2019-04-07T19:16:50.927Z,56.27
2019-04-07T19:19:39.736Z,56.23
2019-04-07T19:22:28.094Z,57.77
2019-04-07T19:25:14.283Z,54.47
2019-04-07T19:28:17.829Z,57.20
2019-04-07T19:31:18.049Z,60.17
2019-04-07T19:34:05.134Z,61.57
2019-04-07T19:37:08.354Z,62.83
2019-04-07T19:40:11.199Z,58.10
2019-04-07T19:42:48.211Z,63.73
2019-04-07T19:45:41.315Z,61.07
2019-04-07T19:48:40.541Z,64.60
2019-04-07T19:51:29.384Z,64.23
2019-04-07T19:54:13.553Z,61.10
2019-04-07T19:57:09.221Z,62.63
2019-04-07T19:59:52.743Z,63.10
2019-04-07T20:02:44.586Z,66.50
2019-04-07T20:05:44.537Z,64.23
2019-04-07T20:08:26.930Z,67.23
2019-04-07T20:11:27.723Z,71.57
2019-04-07T20:14:05.083Z,68.30
2019-04-07T20:16:59.885Z,69.00
2019-04-07T20:19:51.338Z,71.53
2019-04-07T20:22:30.736Z,65.50
2019-04-07T20:25:17.511Z,73.17
2019-04-07T20:28:06.617Z,69.00
2019-04-07T20:30:57.745Z,68.17
2019-04-07T20:34:02.211Z,77.10
2019-04-07T20:36:57.698Z,73.87
2019-04-07T20:39:56.729Z,69.40
2019-04-07T20:43:03.030Z,71.30
2019-04-07T20:46:06.683Z,63.37
2019-04-07T20:48:43.205Z,75.13
2019-04-07T20:51:20.885Z,75.10
2019-04-07T20:54:07.592Z,74.07
2019-04-07T20:56:59.481Z,78.53
2019-04-07T20:59:48.343Z,78.83
2019-04-07T21:02:29.328Z,83.83
2019-04-07T21:05:16.842Z,75.73
2019-04-07T21:07:57.836Z,82.13
2019-04-07T21:10:58.588Z,86.50
2019-04-07T21:13:43.051Z,76.93
2019-04-07T21:16:31.310Z,94.40
2019-04-07T21:19:22.860Z,76.87
2019-04-07T21:22:00.109Z,85.07
2019-04-07T21:24:51.725Z,87.47
2019-04-07T21:27:40.874Z,86.00
2019-04-07T21:30:33.263Z,89.70
2019-04-07T21:33:11.147Z,98.60
2019-04-07T21:36:10.378Z,79.60
2019-04-07T21:38:55.159Z,81.20
2019-04-07T21:41:45.127Z,74.03
2019-04-07T21:44:36.157Z,75.57
2019-04-07T21:47:27.688Z,82.23
2019-04-07T21:50:11.951Z,78.93
2019-04-07T21:53:00.088Z,81.20
2019-04-07T21:55:45.777Z,76.70
2019-04-07T21:58:42.591Z,73.60
2019-04-07T22:01:39.611Z,81.73
2019-04-07T22:04:18.883Z,74.53
2019-04-07T22:07:09.527Z,70.63
2019-04-07T22:09:49.445Z,66.77
2019-04-07T22:12:16.999Z,66.77
2019-04-07T22:14:46.404Z,74.67
2019-04-07T22:17:16.453Z,72.40
2019-04-07T22:19:46.669Z,74.00
2019-04-07T22:22:16.551Z,68.30
2019-04-07T22:24:46.346Z,62.53
2019-04-07T22:27:21.255Z,57.47
2019-04-07T22:29:46.930Z,58.47
2019-04-07T22:32:19.287Z,52.93
2019-04-07T22:34:46.798Z,51.53
2019-04-07T22:37:18.651Z,52.73
2019-04-07T22:39:47.065Z,52.73
2019-04-07T22:42:17.154Z,56.77
2019-04-07T22:44:47.381Z,55.63
2019-04-07T22:47:16.846Z,51.83
2019-04-07T22:49:45.912Z,48.83
2019-04-07T22:52:17.581Z,51.07
2019-04-07T22:54:45.681Z,52.20
2019-04-07T22:57:15.458Z,50.43
2019-04-07T22:59:44.542Z,49.87
2019-04-07T23:02:13.771Z,48.77
2019-04-07T23:04:42.725Z,50.10
2019-04-07T23:07:12.133Z,51.97
2019-04-07T23:09:41.219Z,48.70
2019-04-07T23:12:10.628Z,51.33
2019-04-07T23:14:40.119Z,52.77
2019-04-07T23:17:09.959Z,52.20
2019-04-07T23:19:39.907Z,50.50
2019-04-07T23:22:09.529Z,50.10
2019-04-07T23:24:39.027Z,51.10
2019-04-07T23:27:08.241Z,50.83
2019-04-07T23:29:37.408Z,49.53
2019-04-07T23:32:07.389Z,53.40
2019-04-07T23:34:36.567Z,51.43
2019-04-07T23:37:06.065Z,49.83
2019-04-07T23:39:35.606Z,52.77
2019-04-07T23:42:05.493Z,53.13
2019-04-07T23:44:35.246Z,56.27
2019-04-07T23:47:04.775Z,52.27
2019-04-07T23:49:34.254Z,51.37
2019-04-07T23:52:03.389Z,53.07
2019-04-07T23:54:33.106Z,49.57
2019-04-07T23:57:02.262Z,49.67
2019-04-07T23:59:31.293Z,49.87
